sensor_id;sensor_type;location;lat;lon;timestamp;P1;durP1;ratioP1;P2;durP2;ratioP2
13687;SDS011;6916;51.504;7.416;2023-02-08T00:09:49;13.50;;;10.43;;
13687;SDS011;6916;51.504;7.416;2023-02-08T00:19:51;12.10;;;9.13;;
13687;SDS011;6916;51.504;7.416;2023-02-08T00:29:54;10.40;;;8.77;;
13687;SDS011;6916;51.504;7.416;2023-02-08T00:39:56;15.13;;;10.20;;
13687;SDS011;6916;51.504;7.416;2023-02-08T00:50:00;13.77;;;10.20;;
13687;SDS011;6916;51.504;7.416;2023-02-08T01:00:04;12.93;;;9.57;;
13687;SDS011;6916;51.504;7.416;2023-02-08T01:10:09;13.90;;;9.27;;
13687;SDS011;6916;51.504;7.416;2023-02-08T01:20:14;14.00;;;9.90;;
13687;SDS011;6916;51.504;7.416;2023-02-08T01:30:17;13.63;;;10.57;;
13687;SDS011;6916;51.504;7.416;2023-02-08T01:40:19;13.73;;;10.43;;
13687;SDS011;6916;51.504;7.416;2023-02-08T01:50:23;12.73;;;10.27;;
13687;SDS011;6916;51.504;7.416;2023-02-08T02:00:29;22.07;;;13.00;;
13687;SDS011;6916;51.504;7.416;2023-02-08T02:10:33;15.77;;;11.63;;
13687;SDS011;6916;51.504;7.416;2023-02-08T02:41:19;10.03;;;8.03;;
13687;SDS011;6916;51.504;7.416;2023-02-08T02:51:52;12.10;;;8.33;;
13687;SDS011;6916;51.504;7.416;2023-02-08T03:01:59;10.00;;;7.47;;
13687;SDS011;6916;51.504;7.416;2023-02-08T03:22:51;9.30;;;7.60;;
13687;SDS011;6916;51.504;7.416;2023-02-08T03:43:02;8.53;;;6.47;;
13687;SDS011;6916;51.504;7.416;2023-02-08T03:53:17;7.80;;;6.40;;
13687;SDS011;6916;51.504;7.416;2023-02-08T04:03:24;7.70;;;6.30;;
13687;SDS011;6916;51.504;7.416;2023-02-08T04:13:27;10.63;;;7.57;;
13687;SDS011;6916;51.504;7.416;2023-02-08T04:23:30;9.13;;;7.13;;
13687;SDS011;6916;51.504;7.416;2023-02-08T04:33:32;7.90;;;7.03;;
13687;SDS011;6916;51.504;7.416;2023-02-08T04:43:34;9.17;;;7.00;;
13687;SDS011;6916;51.504;7.416;2023-02-08T04:53:37;9.17;;;7.10;;
13687;SDS011;6916;51.504;7.416;2023-02-08T05:03:43;8.57;;;6.87;;
13687;SDS011;6916;51.504;7.416;2023-02-08T05:13:45;9.27;;;7.20;;
13687;SDS011;6916;51.504;7.416;2023-02-08T05:23:48;8.97;;;6.43;;
13687;SDS011;6916;51.504;7.416;2023-02-08T05:33:51;9.07;;;7.43;;
13687;SDS011;6916;51.504;7.416;2023-02-08T05:43:53;9.90;;;6.47;;
13687;SDS011;6916;51.504;7.416;2023-02-08T05:53:56;10.27;;;6.90;;
13687;SDS011;6916;51.504;7.416;2023-02-08T06:03:58;7.50;;;6.10;;
13687;SDS011;6916;51.504;7.416;2023-02-08T06:14:01;9.60;;;6.77;;
13687;SDS011;6916;51.504;7.416;2023-02-08T06:24:04;9.10;;;6.90;;
13687;SDS011;6916;51.504;7.416;2023-02-08T06:34:07;9.60;;;7.13;;
13687;SDS011;6916;51.504;7.416;2023-02-08T06:44:09;8.67;;;6.67;;
13687;SDS011;6916;51.504;7.416;2023-02-08T06:54:12;10.87;;;6.97;;
13687;SDS011;6916;51.504;7.416;2023-02-08T07:04:16;8.07;;;6.77;;
13687;SDS011;6916;51.504;7.416;2023-02-08T07:14:18;9.80;;;7.43;;
13687;SDS011;6916;51.504;7.416;2023-02-08T07:24:21;9.33;;;6.93;;
13687;SDS011;6916;51.504;7.416;2023-02-08T07:34:23;10.67;;;8.50;;
13687;SDS011;6916;51.504;7.416;2023-02-08T07:44:26;10.00;;;7.93;;
13687;SDS011;6916;51.504;7.416;2023-02-08T07:54:28;11.67;;;7.97;;
13687;SDS011;6916;51.504;7.416;2023-02-08T08:04:31;10.50;;;7.70;;
13687;SDS011;6916;51.504;7.416;2023-02-08T08:14:33;10.73;;;7.73;;
13687;SDS011;6916;51.504;7.416;2023-02-08T08:24:35;11.70;;;7.53;;
13687;SDS011;6916;51.504;7.416;2023-02-08T08:34:37;13.77;;;7.30;;
13687;SDS011;6916;51.504;7.416;2023-02-08T08:44:40;6.90;;;5.80;;
13687;SDS011;6916;51.504;7.416;2023-02-08T08:54:42;10.13;;;5.57;;
13687;SDS011;6916;51.504;7.416;2023-02-08T09:04:44;8.90;;;5.40;;
13687;SDS011;6916;51.504;7.416;2023-02-08T09:14:46;8.80;;;5.30;;
13687;SDS011;6916;51.504;7.416;2023-02-08T09:24:48;6.47;;;4.70;;
13687;SDS011;6916;51.504;7.416;2023-02-08T09:34:50;6.83;;;4.20;;
13687;SDS011;6916;51.504;7.416;2023-02-08T10:05:28;4.37;;;3.07;;
13687;SDS011;6916;51.504;7.416;2023-02-08T10:36:57;2.57;;;1.50;;
13687;SDS011;6916;51.504;7.416;2023-02-08T10:47:11;2.73;;;2.00;;
13687;SDS011;6916;51.504;7.416;2023-02-08T10:57:26;3.23;;;1.87;;
13687;SDS011;6916;51.504;7.416;2023-02-08T11:07:30;2.07;;;1.53;;
13687;SDS011;6916;51.504;7.416;2023-02-08T11:17:37;2.07;;;1.40;;
13687;SDS011;6916;51.504;7.416;2023-02-08T11:27:41;1.90;;;1.20;;
13687;SDS011;6916;51.504;7.416;2023-02-08T11:37:50;2.20;;;1.03;;
13687;SDS011;6916;51.504;7.416;2023-02-08T11:47:53;1.30;;;1.20;;
13687;SDS011;6916;51.504;7.416;2023-02-08T11:57:59;2.97;;;1.07;;
13687;SDS011;6916;51.504;7.416;2023-02-08T12:08:34;3.00;;;1.20;;
13687;SDS011;6916;51.504;7.416;2023-02-08T12:18:48;2.77;;;1.10;;
13687;SDS011;6916;51.504;7.416;2023-02-08T12:40:06;2.30;;;1.00;;
13687;SDS011;6916;51.504;7.416;2023-02-08T12:50:45;2.90;;;1.57;;
13687;SDS011;6916;51.504;7.416;2023-02-08T13:00:55;4.10;;;1.70;;
13687;SDS011;6916;51.504;7.416;2023-02-08T13:11:03;2.87;;;1.70;;
13687;SDS011;6916;51.504;7.416;2023-02-08T13:21:25;1.20;;;0.87;;
13687;SDS011;6916;51.504;7.416;2023-02-08T13:31:32;3.03;;;2.00;;
13687;SDS011;6916;51.504;7.416;2023-02-08T13:41:38;2.30;;;1.60;;
13687;SDS011;6916;51.504;7.416;2023-02-08T13:51:54;8.03;;;2.03;;
13687;SDS011;6916;51.504;7.416;2023-02-08T14:02:17;2.00;;;1.50;;
13687;SDS011;6916;51.504;7.416;2023-02-08T14:12:25;1.90;;;1.60;;
13687;SDS011;6916;51.504;7.416;2023-02-08T14:22:38;2.23;;;2.03;;
13687;SDS011;6916;51.504;7.416;2023-02-08T14:32:46;2.23;;;1.50;;
13687;SDS011;6916;51.504;7.416;2023-02-08T14:53:14;5.20;;;2.00;;
13687;SDS011;6916;51.504;7.416;2023-02-08T15:03:19;2.93;;;1.97;;
13687;SDS011;6916;51.504;7.416;2023-02-08T15:13:22;5.00;;;2.63;;
13687;SDS011;6916;51.504;7.416;2023-02-08T15:23:27;3.90;;;2.73;;
13687;SDS011;6916;51.504;7.416;2023-02-08T15:33:29;2.97;;;2.00;;
13687;SDS011;6916;51.504;7.416;2023-02-08T15:43:33;2.90;;;1.73;;
13687;SDS011;6916;51.504;7.416;2023-02-08T15:53:36;3.40;;;1.90;;
13687;SDS011;6916;51.504;7.416;2023-02-08T16:03:44;4.17;;;1.70;;
13687;SDS011;6916;51.504;7.416;2023-02-08T16:13:49;2.60;;;1.27;;
13687;SDS011;6916;51.504;7.416;2023-02-08T16:23:54;2.73;;;1.40;;
13687;SDS011;6916;51.504;7.416;2023-02-08T16:44:18;1.67;;;1.20;;
13687;SDS011;6916;51.504;7.416;2023-02-08T16:54:25;1.90;;;1.40;;
13687;SDS011;6916;51.504;7.416;2023-02-08T17:04:29;1.43;;;1.30;;
13687;SDS011;6916;51.504;7.416;2023-02-08T17:14:34;2.47;;;1.57;;
13687;SDS011;6916;51.504;7.416;2023-02-08T17:24:36;4.67;;;2.83;;
13687;SDS011;6916;51.504;7.416;2023-02-08T17:34:40;3.13;;;2.60;;
13687;SDS011;6916;51.504;7.416;2023-02-08T17:44:42;3.60;;;2.37;;
13687;SDS011;6916;51.504;7.416;2023-02-08T17:54:45;8.67;;;3.10;;
13687;SDS011;6916;51.504;7.416;2023-02-08T18:04:48;8.00;;;3.93;;
13687;SDS011;6916;51.504;7.416;2023-02-08T18:14:51;9.73;;;3.67;;
13687;SDS011;6916;51.504;7.416;2023-02-08T18:24:53;6.53;;;4.40;;
13687;SDS011;6916;51.504;7.416;2023-02-08T18:34:56;11.63;;;4.17;;
13687;SDS011;6916;51.504;7.416;2023-02-08T18:44:59;7.33;;;3.77;;
13687;SDS011;6916;51.504;7.416;2023-02-08T18:55:01;9.03;;;4.60;;
13687;SDS011;6916;51.504;7.416;2023-02-08T19:05:04;7.63;;;4.33;;
13687;SDS011;6916;51.504;7.416;2023-02-08T19:15:07;6.97;;;4.23;;
13687;SDS011;6916;51.504;7.416;2023-02-08T19:25:11;7.23;;;4.43;;
13687;SDS011;6916;51.504;7.416;2023-02-08T19:35:13;6.57;;;4.40;;
13687;SDS011;6916;51.504;7.416;2023-02-08T19:45:15;8.67;;;3.87;;
13687;SDS011;6916;51.504;7.416;2023-02-08T19:55:17;10.90;;;4.93;;
13687;SDS011;6916;51.504;7.416;2023-02-08T20:05:21;8.17;;;4.83;;
13687;SDS011;6916;51.504;7.416;2023-02-08T20:15:23;11.80;;;6.03;;
13687;SDS011;6916;51.504;7.416;2023-02-08T20:25:25;11.80;;;7.07;;
13687;SDS011;6916;51.504;7.416;2023-02-08T20:35:27;9.33;;;6.70;;
13687;SDS011;6916;51.504;7.416;2023-02-08T20:45:29;10.10;;;6.60;;
13687;SDS011;6916;51.504;7.416;2023-02-08T20:55:32;12.43;;;7.43;;
13687;SDS011;6916;51.504;7.416;2023-02-08T21:05:34;13.37;;;7.83;;
13687;SDS011;6916;51.504;7.416;2023-02-08T21:15:40;13.77;;;8.47;;
13687;SDS011;6916;51.504;7.416;2023-02-08T21:25:43;13.23;;;9.17;;
13687;SDS011;6916;51.504;7.416;2023-02-08T21:35:46;15.13;;;9.10;;
13687;SDS011;6916;51.504;7.416;2023-02-08T21:45:48;12.23;;;9.13;;
13687;SDS011;6916;51.504;7.416;2023-02-08T21:55:50;12.20;;;8.57;;
13687;SDS011;6916;51.504;7.416;2023-02-08T22:05:52;10.83;;;8.50;;
13687;SDS011;6916;51.504;7.416;2023-02-08T22:15:55;19.20;;;10.27;;
13687;SDS011;6916;51.504;7.416;2023-02-08T22:25:57;15.60;;;10.13;;
13687;SDS011;6916;51.504;7.416;2023-02-08T22:35:59;12.43;;;9.30;;
13687;SDS011;6916;51.504;7.416;2023-02-08T22:46:07;13.57;;;9.17;;
13687;SDS011;6916;51.504;7.416;2023-02-08T22:56:09;13.60;;;8.20;;
13687;SDS011;6916;51.504;7.416;2023-02-08T23:06:15;16.17;;;9.73;;
13687;SDS011;6916;51.504;7.416;2023-02-08T23:16:17;13.80;;;9.40;;
13687;SDS011;6916;51.504;7.416;2023-02-08T23:26:20;14.40;;;9.10;;
13687;SDS011;6916;51.504;7.416;2023-02-08T23:36:23;13.50;;;9.17;;
13687;SDS011;6916;51.504;7.416;2023-02-08T23:46:25;13.23;;;8.77;;
13687;SDS011;6916;51.504;7.416;2023-02-08T23:56:29;15.33;;;9.27;;
